Time;durP1;ratioP1;P1;durP2;ratioP2;P2;SDS_P1;SDS_P2;PMS_P1;PMS_P2;Temp;Humidity;BMP_temperature;BMP_pressure;BME280_temperature;BME280_humidity;BME280_pressure;Samples;Min_cycle;Max_cycle;Signal;HPM_P1;HPM_P2
2022/02/27 00:02:16;;;;;;;20.60;3.95;;;;;;;8.21;93.38;100559.81;5051015;28;20048;-80
2022/02/27 00:04:42;;;;;;;9.43;2.58;;;;;;;8.20;93.37;100574.19;5065734;28;20072;-80
2022/02/27 00:07:07;;;;;;;12.95;3.17;;;;;;;8.17;94.16;100563.81;5049216;28;20029;-81
2022/02/27 00:09:33;;;;;;;16.73;4.72;;;;;;;8.19;93.89;100562.66;5030271;28;20039;-80
2022/02/27 00:11:59;;;;;;;18.10;4.00;;;;;;;8.13;94.28;100555.28;5063522;28;20032;-79
2022/02/27 00:14:25;;;;;;;17.35;4.47;;;;;;;8.11;94.78;100570.66;5065193;28;20044;-79
2022/02/27 00:16:50;;;;;;;17.02;3.20;;;;;;;8.02;95.00;100563.59;5051805;28;20043;-80
2022/02/27 00:19:16;;;;;;;13.02;3.40;;;;;;;7.93;95.16;100552.88;5064721;28;20036;-79
2022/02/27 00:21:42;;;;;;;16.98;3.40;;;;;;;8.03;95.19;100565.28;5035805;28;20698;-79
2022/02/27 00:24:09;;;;;;;23.65;5.00;;;;;;;8.03;95.45;100578.69;5059965;28;20068;-79
2022/02/27 00:26:34;;;;;;;15.73;4.80;;;;;;;8.06;95.45;100575.69;5068606;28;20032;-79
2022/02/27 00:29:00;;;;;;;19.83;3.33;;;;;;;8.07;95.12;100572.84;5036288;28;20067;-79
2022/02/27 00:31:25;;;;;;;14.90;3.28;;;;;;;8.07;95.33;100580.03;5048036;28;20105;-78
2022/02/27 00:33:53;;;;;;;29.42;3.83;;;;;;;7.97;95.71;100563.28;5061805;28;20451;-79
2022/02/27 00:36:19;;;;;;;14.57;2.90;;;;;;;8.04;95.92;100566.97;5026176;28;20041;-78
2022/02/27 00:38:45;;;;;;;14.50;3.55;;;;;;;8.08;95.15;100571.00;5047872;28;20437;-77
2022/02/27 00:41:10;;;;;;;20.48;5.30;;;;;;;8.18;94.95;100574.38;5031022;28;20040;-78
2022/02/27 00:43:36;;;;;;;26.60;3.88;;;;;;;8.29;94.83;100583.94;5053851;28;20033;-78
2022/02/27 00:46:04;;;;;;;17.40;4.45;;;;;;;8.31;94.36;100569.38;5048688;28;20566;-78
2022/02/27 00:48:30;;;;;;;19.48;3.45;;;;;;;8.33;94.40;100558.47;5079114;28;20033;-78
2022/02/27 00:50:55;;;;;;;22.10;3.50;;;;;;;8.35;94.14;100556.47;5055734;28;20051;-79
2022/02/27 00:53:21;;;;;;;22.10;3.70;;;;;;;8.39;94.02;100576.63;5057441;28;20055;-78
2022/02/27 00:55:46;;;;;;;24.85;5.18;;;;;;;8.42;93.38;100584.31;5058674;28;20036;-79
2022/02/27 00:58:12;;;;;;;15.82;3.72;;;;;;;8.40;93.71;100580.97;5043677;28;20489;-78
2022/02/27 01:00:38;;;;;;;16.65;4.55;;;;;;;8.38;94.06;100577.56;5039187;28;20037;-80
2022/02/27 01:03:03;;;;;;;8.50;3.00;;;;;;;8.39;93.95;100590.00;5060236;28;20041;-78
2022/02/27 01:05:29;;;;;;;21.92;4.53;;;;;;;8.41;93.66;100585.31;5029259;28;20043;-78
2022/02/27 01:07:55;;;;;;;16.23;3.80;;;;;;;8.48;93.09;100583.63;5063372;28;20471;-79
2022/02/27 01:10:20;;;;;;;21.98;4.45;;;;;;;8.49;93.41;100576.44;5060871;28;20094;-78
2022/02/27 01:12:46;;;;;;;17.40;4.72;;;;;;;8.51;93.15;100585.16;5043726;28;20037;-78
2022/02/27 01:15:11;;;;;;;27.13;4.95;;;;;;;8.53;92.93;100588.50;5052801;28;20386;-78
2022/02/27 01:17:37;;;;;;;17.50;3.58;;;;;;;8.58;92.60;100589.69;5045214;28;20356;-78
2022/02/27 01:20:05;;;;;;;18.80;4.97;;;;;;;8.57;92.26;100588.00;5030041;28;20095;-78
2022/02/27 01:22:31;;;;;;;19.55;3.88;;;;;;;8.55;92.32;100600.72;5045992;28;20048;-78
2022/02/27 01:24:56;;;;;;;23.63;4.30;;;;;;;8.52;92.34;100608.25;5063503;28;20036;-79
2022/02/27 01:27:25;;;;;;;26.88;6.43;;;;;;;8.49;92.72;100598.69;5067827;28;20043;-79
2022/02/27 01:29:52;;;;;;;13.63;2.45;;;;;;;8.52;93.00;100610.94;5051938;28;20036;-79
2022/02/27 01:32:17;;;;;;;20.35;5.35;;;;;;;8.53;92.89;100607.25;5047653;28;20037;-79
2022/02/27 01:34:44;;;;;;;33.08;8.35;;;;;;;8.46;93.04;100596.34;5056690;28;20029;-78
2022/02/27 01:37:09;;;;;;;32.47;8.43;;;;;;;8.52;92.63;100589.50;5046953;28;20028;-80
2022/02/27 01:39:35;;;;;;;23.77;6.25;;;;;;;8.51;92.67;100582.47;5046524;28;20194;-79
2022/02/27 01:42:01;;;;;;;19.92;5.00;;;;;;;8.45;93.10;100585.81;5050695;28;20029;-80
2022/02/27 01:44:26;;;;;;;20.17;4.80;;;;;;;8.47;93.17;100586.50;5075995;28;20662;-80
2022/02/27 01:47:00;;;;;;;21.30;6.53;;;;;;;8.51;93.22;100587.81;5046571;28;20458;-78
2022/02/27 01:49:26;;;;;;;33.47;4.88;;;;;;;8.52;93.35;100594.84;5062522;28;20111;-79
2022/02/27 01:51:52;;;;;;;19.63;3.50;;;;;;;8.52;93.07;100576.09;5032615;28;20128;-80
2022/02/27 01:54:18;;;;;;;14.68;3.22;;;;;;;8.46;93.23;100582.97;5048009;28;20044;-79
2022/02/27 01:56:44;;;;;;;23.25;4.93;;;;;;;8.46;93.73;100590.16;5062436;28;20071;-78
2022/02/27 01:59:10;;;;;;;17.52;4.15;;;;;;;8.51;93.59;100577.94;5034094;28;20047;-79
2022/02/27 02:01:35;;;;;;;19.08;3.95;;;;;;;8.46;93.07;100569.56;5040086;28;20048;-79
2022/02/27 02:04:01;;;;;;;23.40;4.35;;;;;;;8.44;93.91;100563.56;5049634;28;20033;-77
2022/02/27 02:06:27;;;;;;;15.32;3.85;;;;;;;8.35;93.77;100548.44;5046134;28;20047;-77
2022/02/27 02:08:52;;;;;;;19.73;3.63;;;;;;;8.30;94.00;100548.91;5059082;28;20913;-77
2022/02/27 02:11:18;;;;;;;22.58;4.60;;;;;;;8.22;94.95;100565.00;5045456;28;20049;-77
2022/02/27 02:13:44;;;;;;;13.57;3.25;;;;;;;8.16;95.05;100554.94;5048816;28;20036;-79
2022/02/27 02:16:09;;;;;;;13.77;4.38;;;;;;;8.08;95.49;100549.56;5063380;28;20183;-79
2022/02/27 02:18:38;;;;;;;20.92;4.82;;;;;;;7.87;95.96;100540.16;5056791;28;20382;-79
2022/02/27 02:21:04;;;;;;;15.88;4.70;;;;;;;8.01;97.01;100561.94;5057894;28;20052;-80
2022/02/27 02:23:30;;;;;;;10.30;3.22;;;;;;;8.04;96.65;100554.41;5048734;28;20040;-79
2022/02/27 02:25:56;;;;;;;25.30;4.22;;;;;;;8.11;96.57;100560.78;5038000;28;20059;-80
2022/02/27 02:28:21;;;;;;;20.60;4.93;;;;;;;8.19;96.51;100568.00;5043502;28;20066;-79
2022/02/27 02:30:47;;;;;;;13.45;3.90;;;;;;;8.24;95.65;100567.50;5046479;28;20127;-79
2022/02/27 02:33:13;;;;;;;15.05;4.05;;;;;;;8.26;95.80;100562.84;5043241;28;20119;-79
2022/02/27 02:35:44;;;;;;;28.75;4.28;;;;;;;8.35;95.12;100551.13;5028376;28;20032;-79
2022/02/27 02:38:10;;;;;;;18.08;3.72;;;;;;;8.32;94.82;100564.84;5063616;28;20135;-78
2022/02/27 02:40:36;;;;;;;16.67;4.75;;;;;;;8.30;95.08;100564.16;5047127;28;20123;-79
2022/02/27 02:43:02;;;;;;;13.95;2.63;;;;;;;8.29;95.31;100552.63;5026536;28;20028;-81
2022/02/27 02:45:27;;;;;;;13.20;4.20;;;;;;;8.34;95.20;100555.63;5047929;28;20040;-79
2022/02/27 02:47:55;;;;;;;10.50;3.35;;;;;;;8.33;95.68;100571.88;5025637;28;20078;-78
2022/02/27 02:50:22;;;;;;;16.58;3.45;;;;;;;8.26;95.58;100558.31;5069705;28;20436;-77
2022/02/27 02:52:48;;;;;;;15.68;3.55;;;;;;;8.27;95.43;100557.28;5037472;28;20082;-78
2022/02/27 02:55:17;;;;;;;14.25;3.00;;;;;;;8.29;95.28;100560.66;5044531;28;20433;-77
2022/02/27 02:57:43;;;;;;;10.70;3.65;;;;;;;8.21;95.81;100555.28;5045280;28;20502;-78
2022/02/27 03:00:11;;;;;;;18.25;3.88;;;;;;;8.18;96.27;100554.75;5033377;28;20036;-78
2022/02/27 03:02:38;;;;;;;10.68;2.80;;;;;;;7.93;96.27;100509.22;5053884;28;20151;-78
2022/02/27 03:05:05;;;;;;;18.92;3.63;;;;;;;7.91;96.51;100528.13;5027015;28;20041;-79
2022/02/27 03:07:35;;;;;;;21.73;3.53;;;;;;;8.02;96.94;100543.03;5045622;28;20048;-79
2022/02/27 03:10:01;;;;;;;13.93;3.80;;;;;;;8.00;97.29;100553.06;5051165;28;20047;-78
2022/02/27 03:12:26;;;;;;;19.75;4.43;;;;;;;7.93;97.05;100555.56;5047169;28;20071;-78
2022/02/27 03:14:52;;;;;;;16.15;4.95;;;;;;;8.01;97.75;100556.59;5044078;28;20040;-77
2022/02/27 03:17:18;;;;;;;17.92;3.53;;;;;;;8.03;97.81;100563.44;5038615;28;20032;-79
2022/02/27 03:19:46;;;;;;;13.27;3.00;;;;;;;8.12;97.44;100557.13;5030792;28;20051;-78
2022/02/27 03:22:11;;;;;;;20.83;3.65;;;;;;;8.18;97.17;100560.97;5048940;28;20125;-78
2022/02/27 03:24:37;;;;;;;13.02;2.78;;;;;;;8.21;97.18;100541.91;5062930;28;20040;-79
2022/02/27 03:27:02;;;;;;;24.15;3.28;;;;;;;7.96;96.72;100492.81;5059437;28;20391;-78
2022/02/27 03:29:28;;;;;;;14.02;4.57;;;;;;;8.25;97.16;100531.69;5038470;28;20158;-78
2022/02/27 03:31:54;;;;;;;13.52;4.35;;;;;;;8.25;96.89;100543.22;5061051;28;20116;-79
2022/02/27 03:34:21;;;;;;;19.25;4.20;;;;;;;8.30;97.02;100556.97;5025630;28;20029;-79
2022/02/27 03:36:48;;;;;;;11.57;3.35;;;;;;;8.30;96.94;100561.47;5057323;28;20070;-78
2022/02/27 03:39:13;;;;;;;9.45;2.53;;;;;;;8.29;97.03;100562.50;5055520;28;20177;-77
2022/02/27 03:41:39;;;;;;;13.73;3.67;;;;;;;8.32;97.07;100564.84;5047267;28;20482;-78
2022/02/27 03:44:05;;;;;;;16.60;4.28;;;;;;;8.29;97.54;100541.91;5059251;28;20028;-77
2022/02/27 03:46:34;;;;;;;11.05;2.90;;;;;;;8.29;97.62;100536.53;5044063;28;20040;-77
2022/02/27 03:49:06;;;;;;;20.25;3.10;;;;;;;8.29;97.66;100528.50;5056531;28;20033;-78
2022/02/27 03:51:33;;;;;;;14.07;3.28;;;;;;;8.28;97.62;100536.69;5041806;28;20028;-78
2022/02/27 03:54:00;;;;;;;14.90;3.10;;;;;;;8.33;98.62;100543.22;5039544;28;20033;-78
2022/02/27 03:56:25;;;;;;;10.35;3.17;;;;;;;8.41;98.29;100555.00;5026747;28;20047;-78
2022/02/27 03:58:51;;;;;;;18.95;3.30;;;;;;;8.25;98.42;100548.59;5063075;28;20033;-77
2022/02/27 04:01:17;;;;;;;15.10;3.30;;;;;;;8.38;98.92;100554.28;5045763;28;20044;-78
2022/02/27 04:03:44;;;;;;;10.48;2.20;;;;;;;8.29;98.61;100535.72;5058260;28;20517;-78
2022/02/27 04:06:14;;;;;;;11.15;2.72;;;;;;;8.33;99.24;100537.03;5045210;28;20046;-77
2022/02/27 04:08:40;;;;;;;11.50;3.70;;;;;;;8.30;99.21;100532.03;5059454;28;20032;-78
2022/02/27 04:11:06;;;;;;;12.95;2.92;;;;;;;8.28;99.36;100542.06;5059852;28;20028;-77
2022/02/27 04:13:32;;;;;;;10.20;3.60;;;;;;;8.36;99.83;100547.41;5040568;28;20109;-78
2022/02/27 04:15:57;;;;;;;7.97;2.03;;;;;;;8.38;100.00;100550.78;5054962;28;20544;-78
2022/02/27 04:18:23;;;;;;;11.75;2.88;;;;;;;8.39;100.00;100539.09;5029356;28;20433;-77
2022/02/27 04:20:48;;;;;;;13.60;2.75;;;;;;;8.40;99.91;100538.09;5053272;28;20424;-77
2022/02/27 04:23:14;;;;;;;21.70;4.05;;;;;;;8.40;100.00;100540.75;5055946;28;20029;-78
2022/02/27 04:25:40;;;;;;;6.20;3.03;;;;;;;8.37;100.00;100531.19;5056608;28;20040;-77
2022/02/27 04:28:06;;;;;;;6.53;1.95;;;;;;;8.38;100.00;100556.13;5042026;28;20044;-78
2022/02/27 04:30:32;;;;;;;8.38;3.03;;;;;;;8.37;100.00;100554.47;5056225;28;20033;-78
2022/02/27 04:32:57;;;;;;;6.78;1.83;;;;;;;8.38;100.00;100553.44;5044067;28;20033;-78
2022/02/27 04:35:23;;;;;;;8.23;2.20;;;;;;;8.33;100.00;100545.06;5052375;28;20044;-79
2022/02/27 04:37:49;;;;;;;8.45;2.30;;;;;;;8.35;100.00;100551.94;5038861;28;20031;-79
2022/02/27 04:40:15;;;;;;;10.95;2.47;;;;;;;8.28;100.00;100542.91;5038201;28;20032;-78
2022/02/27 04:42:41;;;;;;;11.63;2.83;;;;;;;8.34;100.00;100550.28;5052754;28;20106;-78
2022/02/27 04:45:08;;;;;;;11.55;3.47;;;;;;;8.32;100.00;100546.91;5053821;28;20053;-80
2022/02/27 04:47:34;;;;;;;17.45;3.15;;;;;;;8.35;100.00;100546.59;5034065;28;20474;-77
2022/02/27 04:50:00;;;;;;;27.13;3.42;;;;;;;8.30;100.00;100543.56;5042749;28;20044;-79
2022/02/27 04:52:25;;;;;;;11.48;2.65;;;;;;;8.29;100.00;100549.94;5077375;28;20029;-79
2022/02/27 04:54:51;;;;;;;10.18;3.10;;;;;;;8.30;100.00;100540.06;5042878;28;20044;-79
2022/02/27 04:57:17;;;;;;;17.52;3.65;;;;;;;8.22;100.00;100529.34;5049772;28;20059;-78
2022/02/27 04:59:43;;;;;;;16.88;3.20;;;;;;;8.26;100.00;100536.06;5047112;28;20032;-78
2022/02/27 05:02:08;;;;;;;9.43;2.33;;;;;;;8.22;100.00;100542.72;5048740;28;20405;-77
2022/02/27 05:04:34;;;;;;;14.43;4.03;;;;;;;8.18;100.00;100544.03;5045058;28;20482;-78
2022/02/27 05:07:01;;;;;;;11.38;3.35;;;;;;;8.18;100.00;100538.69;5047029;28;20031;-78
2022/02/27 05:09:27;;;;;;;14.18;2.63;;;;;;;8.09;100.00;100540.53;5022783;28;20513;-77
2022/02/27 05:11:53;;;;;;;11.50;2.45;;;;;;;8.14;100.00;100560.44;5031279;28;20028;-79
2022/02/27 05:14:18;;;;;;;14.13;2.65;;;;;;;8.21;100.00;100570.53;5049337;28;20398;-79
2022/02/27 05:16:46;;;;;;;20.10;3.85;;;;;;;8.21;100.00;100570.53;5041983;28;20028;-79
2022/02/27 05:19:13;;;;;;;9.13;2.22;;;;;;;8.22;100.00;100562.31;5024495;28;20510;-78
2022/02/27 05:21:39;;;;;;;8.25;2.13;;;;;;;8.29;100.00;100546.44;5064012;28;20036;-78
2022/02/27 05:24:06;;;;;;;9.02;1.92;;;;;;;8.24;100.00;100521.97;5030423;28;20033;-80
2022/02/27 05:26:32;;;;;;;10.02;2.75;;;;;;;8.28;100.00;100513.44;5043830;28;20580;-79
2022/02/27 05:28:57;;;;;;;19.65;3.20;;;;;;;8.24;100.00;100514.78;5031307;28;20120;-78
2022/02/27 05:31:24;;;;;;;9.77;2.72;;;;;;;8.23;100.00;100518.47;5060847;28;20524;-78
2022/02/27 05:33:50;;;;;;;15.52;3.20;;;;;;;8.22;100.00;100503.38;5031533;28;20036;-78
2022/02/27 05:36:16;;;;;;;10.35;2.33;;;;;;;8.21;100.00;100496.38;5048766;28;20107;-79
2022/02/27 05:38:41;;;;;;;7.43;2.22;;;;;;;8.19;100.00;100505.56;5031709;28;20470;-79
2022/02/27 05:41:07;;;;;;;10.57;2.88;;;;;;;8.17;100.00;100516.44;5059091;28;20090;-78
2022/02/27 05:43:33;;;;;;;14.05;2.67;;;;;;;8.19;100.00;100530.50;5058303;28;20090;-77
2022/02/27 05:45:58;;;;;;;13.68;2.88;;;;;;;8.18;100.00;100522.63;5069817;28;20564;-77
2022/02/27 05:48:24;;;;;;;14.32;2.80;;;;;;;8.26;100.00;100541.41;5063272;28;20033;-79
2022/02/27 05:50:50;;;;;;;16.30;2.92;;;;;;;8.26;100.00;100533.38;5054464;28;20478;-78
2022/02/27 05:53:16;;;;;;;15.77;3.08;;;;;;;8.25;100.00;100540.53;5040687;28;20033;-78
2022/02/27 05:55:41;;;;;;;10.32;2.50;;;;;;;8.21;100.00;100535.72;5028609;28;20371;-79
2022/02/27 05:58:07;;;;;;;10.30;2.58;;;;;;;8.26;100.00;100533.38;5056124;28;20024;-77
2022/02/27 06:00:32;;;;;;;11.30;2.83;;;;;;;8.24;100.00;100530.84;5060747;28;20064;-78
2022/02/27 06:02:58;;;;;;;18.60;3.05;;;;;;;8.25;100.00;100531.69;5061430;28;20037;-78
2022/02/27 06:05:24;;;;;;;8.93;1.92;;;;;;;8.24;100.00;100527.34;5049240;28;20044;-77
2022/02/27 06:07:49;;;;;;;12.18;3.72;;;;;;;8.27;100.00;100535.88;5066175;28;20097;-78
2022/02/27 06:10:15;;;;;;;12.20;4.00;;;;;;;8.23;100.00;100523.81;5056924;28;20549;-80
2022/02/27 06:12:48;;;;;;;10.95;2.28;;;;;;;8.28;100.00;100523.31;5061701;28;20056;-79
2022/02/27 06:15:14;;;;;;;12.57;2.83;;;;;;;8.26;100.00;100519.97;5060331;28;20028;-78
2022/02/27 06:17:40;;;;;;;12.95;2.30;;;;;;;8.28;100.00;100509.91;5030767;28;20101;-78
2022/02/27 06:20:07;;;;;;;8.95;3.58;;;;;;;8.26;100.00;100510.09;5043448;28;20501;-77
2022/02/27 06:22:32;;;;;;;17.45;3.60;;;;;;;8.23;100.00;100521.16;5054332;28;20397;-79
2022/02/27 06:24:58;;;;;;;15.57;3.50;;;;;;;8.14;100.00;100501.53;5048230;28;20021;-78
2022/02/27 06:27:24;;;;;;;15.13;3.45;;;;;;;8.22;100.00;100527.50;5065320;28;20383;-78
2022/02/27 06:29:49;;;;;;;12.57;2.88;;;;;;;8.13;100.00;100515.09;5043580;28;20090;-78
2022/02/27 06:32:15;;;;;;;15.98;3.92;;;;;;;8.20;100.00;100526.81;5059316;28;20165;-78
2022/02/27 06:34:41;;;;;;;12.60;3.38;;;;;;;8.17;100.00;100521.78;5044723;28;20035;-79
2022/02/27 06:37:06;;;;;;;6.75;2.60;;;;;;;8.20;100.00;100526.81;5043725;28;20029;-78
2022/02/27 06:39:32;;;;;;;9.20;3.97;;;;;;;8.20;100.00;100521.47;5042957;28;20475;-78
2022/02/27 06:41:58;;;;;;;9.95;2.67;;;;;;;8.19;100.00;100521.63;5029117;28;20032;-78
2022/02/27 06:44:23;;;;;;;16.52;3.13;;;;;;;8.10;100.00;100510.09;5039103;28;20399;-78
2022/02/27 06:46:49;;;;;;;14.75;2.80;;;;;;;8.21;100.00;100541.06;5045881;28;20028;-78
2022/02/27 06:49:18;;;;;;;6.97;2.40;;;;;;;8.26;100.00;100544.91;5076646;28;20032;-77
2022/02/27 06:51:43;;;;;;;15.60;3.13;;;;;;;8.23;100.00;100545.25;5038638;28;20226;-77
2022/02/27 06:54:09;;;;;;;16.02;2.67;;;;;;;8.15;100.00;100537.22;5042750;28;20493;-78
2022/02/27 06:56:34;;;;;;;6.05;2.30;;;;;;;8.27;100.00;100556.47;5059744;28;20028;-78
2022/02/27 06:59:00;;;;;;;5.22;2.10;;;;;;;8.26;100.00;100558.31;5046732;28;20115;-78
2022/02/27 07:01:26;;;;;;;7.60;1.85;;;;;;;8.20;100.00;100556.28;5042407;28;20074;-79
2022/02/27 07:03:51;;;;;;;11.20;2.92;;;;;;;8.28;100.00;100576.88;5047316;28;20043;-77
2022/02/27 07:06:18;;;;;;;10.23;2.65;;;;;;;8.25;100.00;100586.09;5045493;28;20055;-78
2022/02/27 07:08:44;;;;;;;10.25;2.25;;;;;;;8.13;100.00;100576.69;5040232;28;20078;-78
2022/02/27 07:11:09;;;;;;;9.95;2.22;;;;;;;8.10;100.00;100574.38;5062418;28;20029;-79
2022/02/27 07:13:35;;;;;;;11.63;2.53;;;;;;;8.15;100.00;100590.78;5045251;28;20086;-79
2022/02/27 07:16:00;;;;;;;12.27;3.42;;;;;;;8.17;100.00;100583.38;5031078;28;20044;-79
2022/02/27 07:18:26;;;;;;;6.35;2.47;;;;;;;8.09;100.00;100588.72;5027134;28;20040;-77
2022/02/27 07:20:52;;;;;;;9.05;3.05;;;;;;;8.06;100.00;100600.59;5029961;28;20035;-79
2022/02/27 07:23:17;;;;;;;10.10;2.72;;;;;;;7.98;100.00;100595.22;5042669;28;20052;-77
2022/02/27 07:25:43;;;;;;;7.28;2.15;;;;;;;7.98;100.00;100607.78;5023183;28;20047;-79
2022/02/27 07:28:08;;;;;;;12.77;2.80;;;;;;;7.92;100.00;100610.13;5056739;28;20031;-78
2022/02/27 07:30:34;;;;;;;10.10;3.70;;;;;;;7.95;100.00;100608.13;5038398;28;20889;-78
2022/02/27 07:33:05;;;;;;;7.28;2.60;;;;;;;7.92;100.00;100607.44;5027799;28;20071;-78
2022/02/27 07:35:30;;;;;;;14.18;3.05;;;;;;;7.97;100.00;100611.47;5056187;28;20035;-77
2022/02/27 07:37:56;;;;;;;13.10;4.15;;;;;;;7.92;100.00;100614.63;5023537;28;20028;-78
2022/02/27 07:40:24;;;;;;;9.85;2.55;;;;;;;7.98;100.00;100624.69;5052048;28;20086;-78
2022/02/27 07:42:50;;;;;;;6.47;1.88;;;;;;;8.00;100.00;100622.69;5025675;28;20041;-79
2022/02/27 07:45:18;;;;;;;5.68;1.45;;;;;;;8.04;100.00;100615.16;5036206;28;20391;-78
2022/02/27 07:47:43;;;;;;;8.98;1.63;;;;;;;8.09;100.00;100615.50;5044376;28;20033;-78
2022/02/27 07:50:09;;;;;;;11.38;2.40;;;;;;;8.11;100.00;100621.56;5031194;28;20044;-81
2022/02/27 07:52:37;;;;;;;5.03;1.00;;;;;;;8.06;100.00;100610.50;5063930;28;20502;-78
2022/02/27 07:55:03;;;;;;;7.15;1.48;;;;;;;8.09;100.00;100607.47;5060384;28;20040;-79
2022/02/27 07:57:29;;;;;;;5.78;1.45;;;;;;;8.14;100.00;100610.50;5044845;28;20045;-79
2022/02/27 07:59:55;;;;;;;8.43;1.48;;;;;;;8.08;100.00;100614.69;5038479;28;20024;-78
2022/02/27 08:02:20;;;;;;;7.63;1.77;;;;;;;8.07;100.00;100625.53;5028199;28;20140;-80
2022/02/27 08:04:46;;;;;;;4.78;1.00;;;;;;;7.98;100.00;100630.03;5058514;28;20429;-78
2022/02/27 08:07:12;;;;;;;1.73;0.95;;;;;;;7.84;100.00;100620.78;5051513;28;20045;-79
2022/02/27 08:09:37;;;;;;;2.65;1.08;;;;;;;7.69;100.00;100627.75;5032484;28;20036;-77
2022/02/27 08:12:03;;;;;;;3.78;1.50;;;;;;;7.49;100.00;100628.00;5045321;28;20523;-78
2022/02/27 08:14:29;;;;;;;5.88;1.33;;;;;;;7.32;100.00;100628.88;5043824;28;20036;-79
2022/02/27 08:16:55;;;;;;;7.90;1.33;;;;;;;7.24;100.00;100626.16;5043139;28;20434;-80
2022/02/27 08:19:20;;;;;;;2.40;0.93;;;;;;;7.10;100.00;100619.56;5069983;28;20397;-78
2022/02/27 08:21:46;;;;;;;3.03;1.42;;;;;;;7.02;100.00;100616.84;5045599;28;20221;-78
2022/02/27 08:24:11;;;;;;;9.38;4.10;;;;;;;6.99;100.00;100628.69;5055079;28;20876;-78
2022/02/27 08:26:37;;;;;;;14.30;7.47;;;;;;;6.82;100.00;100617.00;5068026;28;20040;-78
2022/02/27 08:29:06;;;;;;;9.88;2.20;;;;;;;6.73;100.00;100617.09;5052859;28;20032;-79
2022/02/27 08:31:39;;;;;;;3.28;1.50;;;;;;;6.69;100.00;100610.38;5064463;28;20041;-79
2022/02/27 08:34:05;;;;;;;2.28;0.95;;;;;;;6.82;100.00;100635.72;5050450;28;20032;-78
2022/02/27 08:36:30;;;;;;;2.30;1.13;;;;;;;6.90;100.00;100626.09;5050552;28;20500;-80
2022/02/27 08:38:59;;;;;;;4.40;1.00;;;;;;;7.24;100.00;100631.50;5045745;28;20087;-78
2022/02/27 08:41:26;;;;;;;6.20;1.35;;;;;;;7.63;100.00;100636.44;5064766;28;20047;-78
2022/02/27 08:43:52;;;;;;;0.82;0.68;;;;;;;7.66;100.00;100644.13;5047270;28;20029;-79
2022/02/27 08:46:18;;;;;;;1.40;0.75;;;;;;;8.50;98.64;100655.84;5047038;28;20036;-79
2022/02/27 08:48:44;;;;;;;3.80;1.05;;;;;;;10.00;90.76;100651.75;5028798;28;20063;-78
2022/02/27 08:51:12;;;;;;;4.82;1.08;;;;;;;11.34;82.69;100651.34;5048977;28;20406;-78
2022/02/27 08:53:37;;;;;;;3.17;1.10;;;;;;;12.15;76.87;100650.66;5037077;28;20040;-78
2022/02/27 08:56:04;;;;;;;3.55;1.20;;;;;;;13.30;73.45;100655.94;5064348;28;20467;-78
2022/02/27 08:58:29;;;;;;;4.72;1.20;;;;;;;14.30;68.15;100659.22;5068805;28;20032;-78
2022/02/27 09:00:55;;;;;;;3.28;1.02;;;;;;;14.24;67.41;100668.97;5052439;28;20036;-77
2022/02/27 09:03:26;;;;;;;0.63;0.63;;;;;;;12.52;72.31;100646.91;5067261;28;20031;-77
2022/02/27 09:05:52;;;;;;;1.00;0.80;;;;;;;11.38;78.10;100647.28;5068414;28;20063;-78
2022/02/27 09:08:18;;;;;;;3.15;1.00;;;;;;;10.60;82.05;100653.00;5065803;28;22208;-77
2022/02/27 09:10:44;;;;;;;1.40;0.57;;;;;;;9.93;85.09;100654.34;5049213;28;20028;-77
2022/02/27 09:13:10;;;;;;;5.90;1.67;;;;;;;9.45;88.20;100666.91;5042265;28;20041;-79
2022/02/27 09:15:36;;;;;;;1.85;1.05;;;;;;;9.17;90.29;100653.84;5065511;28;20035;-78
2022/02/27 09:18:02;;;;;;;2.28;0.70;;;;;;;8.99;90.98;100671.94;5066752;28;20094;-77
2022/02/27 09:20:27;;;;;;;4.43;1.17;;;;;;;8.79;91.97;100672.28;5050009;28;20036;-77
2022/02/27 09:22:53;;;;;;;1.50;0.80;;;;;;;8.63;92.41;100664.22;5043249;28;20032;-77
2022/02/27 09:25:19;;;;;;;2.08;0.73;;;;;;;8.74;92.87;100688.03;5041821;28;20036;-78
2022/02/27 09:27:48;;;;;;;3.55;0.90;;;;;;;8.77;92.58;100674.28;5031168;28;20459;-78
2022/02/27 09:30:14;;;;;;;2.40;0.80;;;;;;;8.91;91.97;100674.63;5046432;28;20017;-78
2022/02/27 09:32:43;;;;;;;2.53;0.70;;;;;;;8.97;91.83;100690.91;5067677;28;20048;-77
2022/02/27 09:35:10;;;;;;;1.35;0.85;;;;;;;8.93;92.01;100681.50;5051267;28;20399;-77
2022/02/27 09:37:36;;;;;;;4.05;1.30;;;;;;;9.04;91.72;100688.38;5059964;28;20028;-78
2022/02/27 09:40:04;;;;;;;0.85;0.85;;;;;;;9.07;90.97;100676.47;5045466;28;20035;-79
2022/02/27 09:42:54;;;;;;;1.77;0.80;;;;;;;9.06;90.87;100670.28;5061605;28;20484;-78
2022/02/27 09:45:21;;;;;;;1.25;0.90;;;;;;;9.00;91.44;100687.06;5066106;28;20490;-79
2022/02/27 09:47:51;;;;;;;3.75;1.35;;;;;;;8.94;91.64;100688.53;5057862;28;20032;-78
2022/02/27 09:50:18;;;;;;;4.50;1.50;;;;;;;9.09;90.94;100678.00;5065764;28;20036;-78
2022/02/27 09:52:44;;;;;;;1.35;0.95;;;;;;;9.14;89.94;100664.91;5050085;28;20033;-78
2022/02/27 09:55:12;;;;;;;4.72;1.45;;;;;;;9.50;89.36;100683.31;5049841;28;20132;-78
2022/02/27 09:57:38;;;;;;;1.38;0.85;;;;;;;9.35;88.50;100668.91;5063413;28;20036;-79
2022/02/27 10:00:05;;;;;;;7.38;3.35;;;;;;;9.52;88.41;100678.59;5055025;28;20047;-77
2022/02/27 10:02:32;;;;;;;5.78;1.17;;;;;;;9.60;85.93;100691.16;5044042;28;20023;-78
2022/02/27 10:04:59;;;;;;;2.38;1.27;;;;;;;9.78;84.79;100685.59;5037027;28;20248;-79
2022/02/27 10:07:25;;;;;;;1.40;0.93;;;;;;;10.41;81.26;100679.31;5051224;28;20039;-82
2022/02/27 10:10:03;;;;;;;1.15;0.98;;;;;;;13.63;68.38;100695.88;5048740;28;20040;-83
2022/02/27 10:12:28;;;;;;;2.67;1.20;;;;;;;16.58;57.54;100691.38;5068024;28;20504;-82
2022/02/27 10:15:01;;;;;;;1.05;1.00;;;;;;;17.96;49.40;100693.25;5067953;28;20107;-85
2022/02/27 10:17:32;;;;;;;2.15;0.90;;;;;;;18.21;47.77;100690.44;5067128;28;20056;-84
2022/02/27 10:19:58;;;;;;;1.02;1.02;;;;;;;18.10;47.06;100683.88;5053665;28;20059;-83
2022/02/27 10:22:32;;;;;;;2.10;0.68;;;;;;;15.43;53.30;100685.63;5068788;28;20490;-85
2022/02/27 10:24:59;;;;;;;1.75;0.65;;;;;;;13.68;59.51;100692.56;5056301;28;20135;-84
2022/02/27 10:27:42;;;;;;;1.42;0.80;;;;;;;13.49;62.30;100686.81;5065123;28;20482;-82
2022/02/27 10:30:18;;;;;;;0.82;0.82;;;;;;;13.84;61.33;100662.56;5031096;28;20039;-82
2022/02/27 10:32:46;;;;;;;1.80;1.35;;;;;;;15.18;57.71;100676.25;5067808;28;20403;-81
2022/02/27 10:35:34;;;;;;;2.15;1.13;;;;;;;17.38;50.25;100685.41;5066230;28;20035;-85
2022/02/27 10:38:00;;;;;;;1.95;1.33;;;;;;;18.33;47.25;100676.91;5059828;28;20071;-82
2022/02/27 10:40:37;;;;;;;2.05;1.20;;;;;;;18.33;45.61;100671.44;5046536;28;20070;-82
2022/02/27 10:43:08;;;;;;;2.33;1.08;;;;;;;17.59;47.25;100677.66;5065861;28;20028;-84
2022/02/27 10:45:34;;;;;;;0.90;0.90;;;;;;;17.92;46.65;100681.16;5065808;28;20042;-81
2022/02/27 10:48:02;;;;;;;3.58;1.52;;;;;;;17.40;48.00;100673.25;5042034;28;20032;-84
2022/02/27 10:50:28;;;;;;;2.13;1.08;;;;;;;16.03;51.76;100672.81;5068017;28;20115;-81
2022/02/27 10:52:54;;;;;;;5.35;3.17;;;;;;;17.20;49.01;100667.16;5066703;28;20107;-82
2022/02/27 10:55:19;;;;;;;1.52;1.40;;;;;;;18.17;45.70;100638.34;5049299;28;20439;-84
2022/02/27 10:57:48;;;;;;;3.63;1.30;;;;;;;17.53;46.67;100667.72;5065260;28;20433;-81
2022/02/27 11:00:30;;;;;;;1.65;1.08;;;;;;;17.29;48.06;100666.69;5036171;28;20038;-82
2022/02/27 11:02:57;;;;;;;1.30;1.20;;;;;;;17.20;47.54;100662.59;5048323;28;20035;-81
2022/02/27 11:05:28;;;;;;;0.98;0.90;;;;;;;17.90;45.80;100645.19;5057153;28;20187;-82
2022/02/27 11:07:55;;;;;;;3.40;1.25;;;;;;;17.27;47.13;100636.16;5052871;28;20028;-81
2022/02/27 11:10:26;;;;;;;2.08;1.00;;;;;;;16.36;48.12;100623.03;5068977;28;20106;-83
2022/02/27 11:12:52;;;;;;;1.45;1.30;;;;;;;15.05;52.31;100610.44;5052103;28;20371;-85
2022/02/27 11:15:22;;;;;;;1.95;1.00;;;;;;;16.03;49.95;100624.00;5068266;28;20086;-83
2022/02/27 11:17:48;;;;;;;2.33;1.85;;;;;;;17.56;47.45;100640.06;5048208;28;20043;-84
2022/02/27 11:20:16;;;;;;;5.68;1.05;;;;;;;17.98;44.81;100623.94;5034203;28;20075;-86
2022/02/27 11:22:44;;;;;;;0.90;0.90;;;;;;;18.39;43.63;100621.53;5065708;28;20047;-82